sensor_id;sensor_type;location;lat;lon;timestamp;pressure;altitude;pressure_sealevel;temperature;humidity
498;BME280;39559;48.630;9.162;2023-01-19T00:00:25;96424.19;;;-6.01;100.00
498;BME280;39559;48.630;9.162;2023-01-19T00:02:50;96426.75;;;-5.81;100.00
498;BME280;39559;48.630;9.162;2023-01-19T00:05:16;96428.44;;;-5.83;100.00
498;BME280;39559;48.630;9.162;2023-01-19T00:07:42;96432.66;;;-5.86;100.00
498;BME280;39559;48.630;9.162;2023-01-19T00:10:08;96431.81;;;-5.85;100.00
498;BME280;39559;48.630;9.162;2023-01-19T00:12:34;96431.88;;;-5.68;100.00
498;BME280;39559;48.630;9.162;2023-01-19T00:16:52;96426.81;;;-5.76;100.00
498;BME280;39559;48.630;9.162;2023-01-19T00:19:17;96432.63;;;-5.92;100.00
498;BME280;39559;48.630;9.162;2023-01-19T00:21:42;96430.00;;;-6.14;100.00
498;BME280;39559;48.630;9.162;2023-01-19T00:24:09;96438.47;;;-6.10;100.00
498;BME280;39559;48.630;9.162;2023-01-19T00:26:34;96432.63;;;-5.92;100.00
498;BME280;39559;48.630;9.162;2023-01-19T00:29:02;96438.53;;;-5.90;100.00
498;BME280;39559;48.630;9.162;2023-01-19T00:31:28;96430.94;;;-6.00;100.00
498;BME280;39559;48.630;9.162;2023-01-19T00:33:58;96434.28;;;-6.04;100.00
498;BME280;39559;48.630;9.162;2023-01-19T00:36:24;96446.94;;;-6.04;100.00
498;BME280;39559;48.630;9.162;2023-01-19T00:40:54;96451.06;;;-6.15;100.00
498;BME280;39559;48.630;9.162;2023-01-19T00:43:20;96441.69;;;-6.34;100.00
498;BME280;39559;48.630;9.162;2023-01-19T00:45:45;96446.75;;;-6.30;100.00
498;BME280;39559;48.630;9.162;2023-01-19T00:48:11;96446.81;;;-6.24;100.00
498;BME280;39559;48.630;9.162;2023-01-19T00:50:36;96447.63;;;-6.25;100.00
498;BME280;39559;48.630;9.162;2023-01-19T00:53:02;96451.06;;;-6.13;100.00
498;BME280;39559;48.630;9.162;2023-01-19T00:55:29;96446.09;;;-6.00;100.00
498;BME280;39559;48.630;9.162;2023-01-19T00:57:56;96446.88;;;-6.08;100.00
498;BME280;39559;48.630;9.162;2023-01-19T01:00:21;96457.84;;;-6.08;100.00
498;BME280;39559;48.630;9.162;2023-01-19T01:04:56;96455.28;;;-6.12;100.00
498;BME280;39559;48.630;9.162;2023-01-19T01:07:23;96457.78;;;-6.20;100.00
498;BME280;39559;48.630;9.162;2023-01-19T01:09:49;96458.59;;;-6.23;100.00
498;BME280;39559;48.630;9.162;2023-01-19T01:12:15;96461.03;;;-6.33;100.00
498;BME280;39559;48.630;9.162;2023-01-19T01:14:41;96464.47;;;-6.27;100.00
498;BME280;39559;48.630;9.162;2023-01-19T01:17:07;96455.25;;;-6.19;100.00
498;BME280;39559;48.630;9.162;2023-01-19T01:19:36;96458.66;;;-6.13;100.00
498;BME280;39559;48.630;9.162;2023-01-19T01:22:03;96461.13;;;-6.23;100.00
498;BME280;39559;48.630;9.162;2023-01-19T01:24:28;96459.31;;;-6.44;100.00
498;BME280;39559;48.630;9.162;2023-01-19T01:28:59;96461.03;;;-6.37;100.00
498;BME280;39559;48.630;9.162;2023-01-19T01:31:25;96461.81;;;-6.45;100.00
498;BME280;39559;48.630;9.162;2023-01-19T01:33:50;96461.03;;;-6.38;100.00
498;BME280;39559;48.630;9.162;2023-01-19T01:36:16;96464.31;;;-6.47;100.00
498;BME280;39559;48.630;9.162;2023-01-19T01:38:43;96462.53;;;-6.59;100.00
498;BME280;39559;48.630;9.162;2023-01-19T01:41:09;96464.25;;;-6.56;100.00
498;BME280;39559;48.630;9.162;2023-01-19T01:43:43;96466.84;;;-6.48;100.00
498;BME280;39559;48.630;9.162;2023-01-19T01:46:12;96465.06;;;-6.62;100.00
498;BME280;39559;48.630;9.162;2023-01-19T01:49:03;96463.47;;;-6.50;100.00
498;BME280;39559;48.630;9.162;2023-01-19T01:53:06;96466.16;;;-6.23;100.00
498;BME280;39559;48.630;9.162;2023-01-19T01:55:35;96469.53;;;-6.21;100.00
498;BME280;39559;48.630;9.162;2023-01-19T01:58:04;96471.06;;;-6.46;100.00
498;BME280;39559;48.630;9.162;2023-01-19T02:00:30;96475.13;;;-6.65;100.00
498;BME280;39559;48.630;9.162;2023-01-19T02:03:15;96465.78;;;-6.73;100.00
498;BME280;39559;48.630;9.162;2023-01-19T02:05:41;96466.72;;;-6.61;100.00
498;BME280;39559;48.630;9.162;2023-01-19T02:08:17;96467.66;;;-6.49;100.00
498;BME280;39559;48.630;9.162;2023-01-19T02:11:03;96473.53;;;-6.52;100.00
498;BME280;39559;48.630;9.162;2023-01-19T02:13:52;96473.59;;;-6.47;100.00
498;BME280;39559;48.630;9.162;2023-01-19T02:17:05;96462.47;;;-6.71;100.00
498;BME280;39559;48.630;9.162;2023-01-19T02:19:38;96471.69;;;-6.73;100.00
498;BME280;39559;48.630;9.162;2023-01-19T02:24:36;96464.97;;;-6.69;100.00
498;BME280;39559;48.630;9.162;2023-01-19T02:27:03;96464.03;;;-6.81;100.00
498;BME280;39559;48.630;9.162;2023-01-19T02:29:33;96474.03;;;-6.95;100.00
498;BME280;39559;48.630;9.162;2023-01-19T02:31:59;96471.06;;;-6.49;100.00
498;BME280;39559;48.630;9.162;2023-01-19T02:34:27;96470.09;;;-6.62;100.00
498;BME280;39559;48.630;9.162;2023-01-19T02:37:01;96471.69;;;-6.73;100.00
498;BME280;39559;48.630;9.162;2023-01-19T02:41:08;96470.84;;;-6.77;100.00
498;BME280;39559;48.630;9.162;2023-01-19T02:43:37;96472.38;;;-6.89;100.00
498;BME280;39559;48.630;9.162;2023-01-19T02:46:03;96472.41;;;-6.86;100.00
498;BME280;39559;48.630;9.162;2023-01-19T02:48:29;96476.72;;;-6.76;100.00
498;BME280;39559;48.630;9.162;2023-01-19T02:50:58;96477.41;;;-6.92;100.00
498;BME280;39559;48.630;9.162;2023-01-19T02:53:41;96480.53;;;-7.15;100.00
498;BME280;39559;48.630;9.162;2023-01-19T03:02:22;96488.13;;;-7.14;100.00
498;BME280;39559;48.630;9.162;2023-01-19T03:15:58;96478.19;;;-7.00;100.00
498;BME280;39559;48.630;9.162;2023-01-19T03:18:28;96488.88;;;-7.22;100.00
498;BME280;39559;48.630;9.162;2023-01-19T03:20:58;96493.91;;;-7.24;100.00
498;BME280;39559;48.630;9.162;2023-01-19T03:23:30;96484.75;;;-7.14;100.00
498;BME280;39559;48.630;9.162;2023-01-19T03:25:57;96488.84;;;-7.27;100.00
498;BME280;39559;48.630;9.162;2023-01-19T03:29:15;96496.41;;;-7.27;100.00
498;BME280;39559;48.630;9.162;2023-01-19T03:31:44;96488.72;;;-7.36;100.00
498;BME280;39559;48.630;9.162;2023-01-19T03:34:14;96490.41;;;-7.35;100.00
498;BME280;39559;48.630;9.162;2023-01-19T03:36:52;96497.91;;;-7.41;100.00
498;BME280;39559;48.630;9.162;2023-01-19T03:39:24;96496.44;;;-7.22;100.00
498;BME280;39559;48.630;9.162;2023-01-19T03:42:00;96494.84;;;-7.16;100.00
498;BME280;39559;48.630;9.162;2023-01-19T03:44:28;96491.44;;;-7.18;100.00
498;BME280;39559;48.630;9.162;2023-01-19T03:46:57;96496.53;;;-7.13;100.00
498;BME280;39559;48.630;9.162;2023-01-19T03:49:23;96499.91;;;-7.14;100.00
498;BME280;39559;48.630;9.162;2023-01-19T03:53:18;96492.84;;;-7.44;100.00
498;BME280;39559;48.630;9.162;2023-01-19T03:55:46;96495.19;;;-7.60;100.00
498;BME280;39559;48.630;9.162;2023-01-19T03:58:13;96498.94;;;-7.25;100.00
498;BME280;39559;48.630;9.162;2023-01-19T04:00:39;96501.44;;;-7.27;100.00
498;BME280;39559;48.630;9.162;2023-01-19T04:03:05;96504.81;;;-7.26;100.00
498;BME280;39559;48.630;9.162;2023-01-19T04:05:31;96511.56;;;-7.22;100.00
498;BME280;39559;48.630;9.162;2023-01-19T04:07:57;96511.81;;;-7.74;100.00
498;BME280;39559;48.630;9.162;2023-01-19T04:10:23;96515.25;;;-7.67;100.00
498;BME280;39559;48.630;9.162;2023-01-19T04:12:50;96510.06;;;-7.78;100.00
498;BME280;39559;48.630;9.162;2023-01-19T04:17:20;96513.59;;;-7.65;100.00
498;BME280;39559;48.630;9.162;2023-01-19T04:19:45;96499.44;;;-7.54;100.00
498;BME280;39559;48.630;9.162;2023-01-19T04:22:11;96496.06;;;-7.56;100.00
498;BME280;39559;48.630;9.162;2023-01-19T04:24:36;96511.38;;;-7.41;100.00
498;BME280;39559;48.630;9.162;2023-01-19T04:27:02;96503.75;;;-7.47;100.00
498;BME280;39559;48.630;9.162;2023-01-19T04:29:27;96512.06;;;-7.54;100.00
498;BME280;39559;48.630;9.162;2023-01-19T04:31:53;96514.28;;;-7.76;100.00
498;BME280;39559;48.630;9.162;2023-01-19T04:34:18;96515.00;;;-7.84;100.00
498;BME280;39559;48.630;9.162;2023-01-19T04:36:44;96516.88;;;-7.73;100.00
498;BME280;39559;48.630;9.162;2023-01-19T04:41:23;96517.66;;;-7.75;100.00
498;BME280;39559;48.630;9.162;2023-01-19T04:43:48;96523.16;;;-7.40;100.00
498;BME280;39559;48.630;9.162;2023-01-19T04:46:14;96519.84;;;-7.34;100.00
498;BME280;39559;48.630;9.162;2023-01-19T04:48:39;96523.16;;;-7.40;100.00
498;BME280;39559;48.630;9.162;2023-01-19T04:51:05;96526.69;;;-7.25;100.00
498;BME280;39559;48.630;9.162;2023-01-19T04:53:30;96521.59;;;-7.28;100.00
498;BME280;39559;48.630;9.162;2023-01-19T04:55:56;96520.13;;;-7.11;100.00
498;BME280;39559;48.630;9.162;2023-01-19T04:58:23;96513.50;;;-7.00;100.00
498;BME280;39559;48.630;9.162;2023-01-19T05:00:49;96519.47;;;-6.95;100.00
498;BME280;39559;48.630;9.162;2023-01-19T05:05:25;96517.97;;;-6.74;100.00
498;BME280;39559;48.630;9.162;2023-01-19T05:07:51;96517.22;;;-6.65;100.00
498;BME280;39559;48.630;9.162;2023-01-19T05:10:17;96520.50;;;-6.69;100.00
498;BME280;39559;48.630;9.162;2023-01-19T05:12:43;96520.50;;;-6.74;100.00
498;BME280;39559;48.630;9.162;2023-01-19T05:15:09;96515.59;;;-6.56;100.00
498;BME280;39559;48.630;9.162;2023-01-19T05:17:35;96527.38;;;-6.58;100.00
498;BME280;39559;48.630;9.162;2023-01-19T05:20:00;96534.13;;;-6.57;100.00
498;BME280;39559;48.630;9.162;2023-01-19T05:22:26;96530.13;;;-6.33;100.00
498;BME280;39559;48.630;9.162;2023-01-19T05:24:51;96526.69;;;-6.38;100.00
498;BME280;39559;48.630;9.162;2023-01-19T05:29:29;96527.69;;;-6.18;100.00
498;BME280;39559;48.630;9.162;2023-01-19T05:31:55;96531.81;;;-6.30;100.00
498;BME280;39559;48.630;9.162;2023-01-19T05:34:20;96539.41;;;-6.26;100.00
498;BME280;39559;48.630;9.162;2023-01-19T05:36:46;96528.53;;;-6.17;100.00
498;BME280;39559;48.630;9.162;2023-01-19T05:39:11;96533.66;;;-6.06;100.00
498;BME280;39559;48.630;9.162;2023-01-19T05:41:37;96535.31;;;-6.10;100.00
498;BME280;39559;48.630;9.162;2023-01-19T05:44:02;96530.16;;;-6.22;100.00
498;BME280;39559;48.630;9.162;2023-01-19T05:46:28;96530.22;;;-6.16;100.00
498;BME280;39559;48.630;9.162;2023-01-19T05:48:54;96533.44;;;-6.40;100.00
498;BME280;39559;48.630;9.162;2023-01-19T05:53:33;96539.84;;;-6.74;100.00
498;BME280;39559;48.630;9.162;2023-01-19T05:56:03;96546.59;;;-6.72;100.00
498;BME280;39559;48.630;9.162;2023-01-19T05:58:30;96556.75;;;-6.67;100.00
498;BME280;39559;48.630;9.162;2023-01-19T06:00:56;96555.88;;;-6.68;100.00
498;BME280;39559;48.630;9.162;2023-01-19T06:03:22;96555.19;;;-6.51;100.00
498;BME280;39559;48.630;9.162;2023-01-19T06:05:47;96562.34;;;-6.93;100.00
498;BME280;39559;48.630;9.162;2023-01-19T06:08:13;96565.84;;;-6.83;100.00
498;BME280;39559;48.630;9.162;2023-01-19T06:10:38;96570.97;;;-6.76;100.00
498;BME280;39559;48.630;9.162;2023-01-19T06:13:04;96567.50;;;-6.85;100.00
498;BME280;39559;48.630;9.162;2023-01-19T06:17:36;96577.16;;;-7.22;100.00
498;BME280;39559;48.630;9.162;2023-01-19T06:20:02;96569.03;;;-6.98;100.00
498;BME280;39559;48.630;9.162;2023-01-19T06:22:29;96572.28;;;-7.08;100.00
498;BME280;39559;48.630;9.162;2023-01-19T06:24:55;96577.19;;;-7.21;100.00
498;BME280;39559;48.630;9.162;2023-01-19T06:27:20;96572.16;;;-7.19;100.00
498;BME280;39559;48.630;9.162;2023-01-19T06:29:46;96571.31;;;-7.20;100.00
498;BME280;39559;48.630;9.162;2023-01-19T06:32:11;96575.59;;;-7.14;100.00
498;BME280;39559;48.630;9.162;2023-01-19T06:34:40;96575.53;;;-7.20;100.00
498;BME280;39559;48.630;9.162;2023-01-19T06:37:08;96578.16;;;-7.09;100.00
498;BME280;39559;48.630;9.162;2023-01-19T06:41:40;96573.59;;;-7.40;100.00
498;BME280;39559;48.630;9.162;2023-01-19T06:44:05;96582.94;;;-7.31;100.00
498;BME280;39559;48.630;9.162;2023-01-19T06:46:31;96584.53;;;-7.38;100.00
498;BME280;39559;48.630;9.162;2023-01-19T06:48:59;96575.38;;;-7.29;100.00
498;BME280;39559;48.630;9.162;2023-01-19T06:51:25;96573.00;;;-7.17;100.00
498;BME280;39559;48.630;9.162;2023-01-19T06:53:51;96579.94;;;-6.99;100.00
498;BME280;39559;48.630;9.162;2023-01-19T06:56:16;96582.66;;;-6.82;100.00
498;BME280;39559;48.630;9.162;2023-01-19T06:58:42;96571.91;;;-6.64;100.00
498;BME280;39559;48.630;9.162;2023-01-19T07:01:08;96576.13;;;-6.65;100.00
498;BME280;39559;48.630;9.162;2023-01-19T07:05:43;96577.97;;;-6.48;100.00
498;BME280;39559;48.630;9.162;2023-01-19T07:08:09;96581.31;;;-6.49;100.00
498;BME280;39559;48.630;9.162;2023-01-19T07:10:34;96579.66;;;-6.44;100.00
498;BME280;39559;48.630;9.162;2023-01-19T07:13:00;96577.13;;;-6.49;100.00
498;BME280;39559;48.630;9.162;2023-01-19T07:15:25;96576.38;;;-6.37;100.00
498;BME280;39559;48.630;9.162;2023-01-19T07:17:51;96577.84;;;-6.61;100.00
498;BME280;39559;48.630;9.162;2023-01-19T07:20:16;96596.47;;;-6.51;100.00
498;BME280;39559;48.630;9.162;2023-01-19T07:22:44;96594.81;;;-6.44;100.00
498;BME280;39559;48.630;9.162;2023-01-19T07:25:12;96589.69;;;-6.53;100.00
498;BME280;39559;48.630;9.162;2023-01-19T07:29:47;96590.88;;;-6.16;100.00
498;BME280;39559;48.630;9.162;2023-01-19T07:32:12;96597.69;;;-6.07;100.00
498;BME280;39559;48.630;9.162;2023-01-19T07:34:38;96598.50;;;-6.08;100.00
498;BME280;39559;48.630;9.162;2023-01-19T07:37:04;96595.78;;;-6.34;100.00
498;BME280;39559;48.630;9.162;2023-01-19T07:39:29;96594.09;;;-6.34;100.00
498;BME280;39559;48.630;9.162;2023-01-19T07:41:56;96593.28;;;-6.33;100.00
498;BME280;39559;48.630;9.162;2023-01-19T07:44:21;96602.44;;;-6.41;100.00
498;BME280;39559;48.630;9.162;2023-01-19T07:46:48;96607.44;;;-6.46;100.00
498;BME280;39559;48.630;9.162;2023-01-19T07:49:15;96608.22;;;-6.53;100.00
498;BME280;39559;48.630;9.162;2023-01-19T07:53:50;96619.97;;;-6.55;100.00
498;BME280;39559;48.630;9.162;2023-01-19T07:56:16;96619.00;;;-6.66;100.00
498;BME280;39559;48.630;9.162;2023-01-19T07:58:42;96629.19;;;-6.62;100.00
498;BME280;39559;48.630;9.162;2023-01-19T08:01:09;96621.03;;;-6.34;100.00
498;BME280;39559;48.630;9.162;2023-01-19T08:03:36;96619.44;;;-6.23;100.00
498;BME280;39559;48.630;9.162;2023-01-19T08:06:02;96620.31;;;-6.20;100.00
498;BME280;39559;48.630;9.162;2023-01-19T08:08:30;96627.09;;;-6.15;100.00
498;BME280;39559;48.630;9.162;2023-01-19T08:10:56;96625.28;;;-6.29;100.00
498;BME280;39559;48.630;9.162;2023-01-19T08:13:22;96628.69;;;-6.27;100.00
498;BME280;39559;48.630;9.162;2023-01-19T08:17:59;96632.09;;;-6.22;100.00
498;BME280;39559;48.630;9.162;2023-01-19T08:20:26;96633.88;;;-6.13;100.00
498;BME280;39559;48.630;9.162;2023-01-19T08:22:52;96646.59;;;-6.04;100.00
498;BME280;39559;48.630;9.162;2023-01-19T08:25:32;96647.47;;;-5.97;100.00
498;BME280;39559;48.630;9.162;2023-01-19T08:27:58;96651.78;;;-5.81;100.00
498;BME280;39559;48.630;9.162;2023-01-19T08:30:24;96642.75;;;-5.51;100.00
498;BME280;39559;48.630;9.162;2023-01-19T08:32:54;96645.25;;;-5.52;100.00
498;BME280;39559;48.630;9.162;2023-01-19T08:35:29;96634.38;;;-5.44;100.00
498;BME280;39559;48.630;9.162;2023-01-19T08:37:55;96637.81;;;-5.26;100.00
498;BME280;39559;48.630;9.162;2023-01-19T08:41:57;96638.84;;;-4.93;100.00
498;BME280;39559;48.630;9.162;2023-01-19T08:44:25;96645.72;;;-4.69;100.00
498;BME280;39559;48.630;9.162;2023-01-19T08:46:51;96651.66;;;-4.53;100.00
498;BME280;39559;48.630;9.162;2023-01-19T08:49:17;96652.53;;;-4.39;100.00
498;BME280;39559;48.630;9.162;2023-01-19T08:51:42;96649.13;;;-4.50;100.00
498;BME280;39559;48.630;9.162;2023-01-19T08:54:12;96646.69;;;-4.19;100.00
498;BME280;39559;48.630;9.162;2023-01-19T08:56:38;96650.94;;;-4.00;100.00
498;BME280;39559;48.630;9.162;2023-01-19T08:59:03;96645.03;;;-3.87;100.00
498;BME280;39559;48.630;9.162;2023-01-19T09:01:29;96650.94;;;-3.78;100.00
498;BME280;39559;48.630;9.162;2023-01-19T09:06:05;96649.25;;;-3.65;100.00
498;BME280;39559;48.630;9.162;2023-01-19T09:08:30;96645.84;;;-3.78;100.00
498;BME280;39559;48.630;9.162;2023-01-19T09:10:56;96655.19;;;-3.65;100.00
498;BME280;39559;48.630;9.162;2023-01-19T09:13:24;96645.00;;;-3.68;100.00
498;BME280;39559;48.630;9.162;2023-01-19T09:15:50;96648.38;;;-3.31;100.00
498;BME280;39559;48.630;9.162;2023-01-19T09:18:18;96645.75;;;-2.91;100.00
498;BME280;39559;48.630;9.162;2023-01-19T09:20:48;96639.47;;;-2.16;100.00
498;BME280;39559;48.630;9.162;2023-01-19T09:23:16;96644.03;;;-1.48;100.00
498;BME280;39559;48.630;9.162;2023-01-19T09:25:44;96640.81;;;-0.80;100.00
498;BME280;39559;48.630;9.162;2023-01-19T09:30:05;96648.84;;;-1.14;100.00
498;BME280;39559;48.630;9.162;2023-01-19T09:32:31;96650.03;;;-1.52;100.00
498;BME280;39559;48.630;9.162;2023-01-19T09:34:57;96648.75;;;-2.13;100.00
498;BME280;39559;48.630;9.162;2023-01-19T09:37:23;96653.22;;;-2.52;100.00
498;BME280;39559;48.630;9.162;2023-01-19T09:39:48;96654.13;;;-2.65;100.00
498;BME280;39559;48.630;9.162;2023-01-19T09:42:30;96655.63;;;-2.27;100.00
498;BME280;39559;48.630;9.162;2023-01-19T09:44:57;96655.44;;;-1.94;100.00
498;BME280;39559;48.630;9.162;2023-01-19T09:47:27;96656.66;;;-1.36;100.00
498;BME280;39559;48.630;9.162;2023-01-19T09:50:03;96660.34;;;-0.78;100.00
498;BME280;39559;48.630;9.162;2023-01-19T09:54:15;96652.34;;;0.15;100.00
498;BME280;39559;48.630;9.162;2023-01-19T09:56:42;96644.44;;;0.84;97.82
498;BME280;39559;48.630;9.162;2023-01-19T10:04:43;96644.91;;;1.04;91.97
498;BME280;39559;48.630;9.162;2023-01-19T10:09:59;96661.91;;;0.01;94.01
498;BME280;39559;48.630;9.162;2023-01-19T10:18:16;96660.84;;;-1.28;100.00
498;BME280;39559;48.630;9.162;2023-01-19T10:20:52;96659.28;;;-1.42;100.00
498;BME280;39559;48.630;9.162;2023-01-19T10:25:53;96662.00;;;-1.65;100.00
498;BME280;39559;48.630;9.162;2023-01-19T10:28:24;96649.22;;;-1.56;100.00
498;BME280;39559;48.630;9.162;2023-01-19T10:30:53;96644.78;;;-1.37;100.00
498;BME280;39559;48.630;9.162;2023-01-19T10:33:19;96646.56;;;-1.46;100.00
498;BME280;39559;48.630;9.162;2023-01-19T10:35:45;96639.66;;;-1.32;100.00
498;BME280;39559;48.630;9.162;2023-01-19T10:38:13;96642.31;;;-1.46;100.00
498;BME280;39559;48.630;9.162;2023-01-19T10:42:16;96645.88;;;-1.64;100.00
498;BME280;39559;48.630;9.162;2023-01-19T10:44:42;96642.56;;;-1.72;100.00
498;BME280;39559;48.630;9.162;2023-01-19T10:47:16;96643.38;;;-1.68;100.00
498;BME280;39559;48.630;9.162;2023-01-19T10:49:43;96641.63;;;-1.63;100.00
498;BME280;39559;48.630;9.162;2023-01-19T10:52:36;96634.84;;;-1.63;100.00
498;BME280;39559;48.630;9.162;2023-01-19T10:55:05;96634.81;;;-1.58;100.00
498;BME280;39559;48.630;9.162;2023-01-19T10:57:34;96637.22;;;-1.44;100.00
498;BME280;39559;48.630;9.162;2023-01-19T11:00:28;96638.03;;;-1.39;100.00
498;BME280;39559;48.630;9.162;2023-01-19T11:02:52;96633.81;;;-1.43;100.00
498;BME280;39559;48.630;9.162;2023-01-19T11:06:22;96632.81;;;-1.27;100.00
498;BME280;39559;48.630;9.162;2023-01-19T11:08:50;96629.38;;;-1.23;100.00
498;BME280;39559;48.630;9.162;2023-01-19T11:11:17;96629.34;;;-1.18;100.00
498;BME280;39559;48.630;9.162;2023-01-19T11:13:43;96630.06;;;-1.05;100.00
498;BME280;39559;48.630;9.162;2023-01-19T11:18:50;96626.75;;;-1.17;100.00
498;BME280;39559;48.630;9.162;2023-01-19T11:21:23;96634.44;;;-1.18;100.00
498;BME280;39559;48.630;9.162;2023-01-19T11:23:54;96636.19;;;-1.22;100.00
498;BME280;39559;48.630;9.162;2023-01-19T11:26:33;96633.47;;;-1.09;100.00
498;BME280;39559;48.630;9.162;2023-01-19T11:30:24;96645.41;;;-1.11;100.00
498;BME280;39559;48.630;9.162;2023-01-19T11:32:51;96632.44;;;-0.90;100.00
498;BME280;39559;48.630;9.162;2023-01-19T11:35:37;96633.94;;;-0.72;100.00
498;BME280;39559;48.630;9.162;2023-01-19T11:38:17;96626.97;;;-0.59;100.00
498;BME280;39559;48.630;9.162;2023-01-19T11:40:54;96630.19;;;-0.45;100.00
498;BME280;39559;48.630;9.162;2023-01-19T11:43:22;96628.28;;;-0.27;100.00
498;BME280;39559;48.630;9.162;2023-01-19T11:45:49;96633.53;;;-0.38;100.00
498;BME280;39559;48.630;9.162;2023-01-19T11:48:24;96627.91;;;-0.65;100.00
498;BME280;39559;48.630;9.162;2023-01-19T11:50:52;96619.09;;;-0.42;100.00
498;BME280;39559;48.630;9.162;2023-01-19T11:54:30;96609.38;;;-0.81;100.00
498;BME280;39559;48.630;9.162;2023-01-19T11:56:58;96612.44;;;-0.51;100.00
498;BME280;39559;48.630;9.162;2023-01-19T11:59:24;96608.44;;;-0.72;100.00
498;BME280;39559;48.630;9.162;2023-01-19T12:01:56;96607.34;;;-0.51;100.00
498;BME280;39559;48.630;9.162;2023-01-19T12:06:54;96610.78;;;-0.56;100.00
498;BME280;39559;48.630;9.162;2023-01-19T12:09:26;96609.81;;;-0.48;100.00
498;BME280;39559;48.630;9.162;2023-01-19T12:12:35;96607.50;;;-0.65;100.00
498;BME280;39559;48.630;9.162;2023-01-19T12:18:34;96600.88;;;-0.80;100.00
498;BME280;39559;48.630;9.162;2023-01-19T12:21:01;96604.16;;;-0.70;100.00
498;BME280;39559;48.630;9.162;2023-01-19T12:23:38;96604.25;;;-0.76;100.00
498;BME280;39559;48.630;9.162;2023-01-19T12:28:44;96606.78;;;-0.74;100.00
498;BME280;39559;48.630;9.162;2023-01-19T12:31:14;96594.84;;;-0.72;100.00
498;BME280;39559;48.630;9.162;2023-01-19T12:33:41;96598.22;;;-0.69;100.00
498;BME280;39559;48.630;9.162;2023-01-19T12:42:32;96589.78;;;-0.74;100.00
498;BME280;39559;48.630;9.162;2023-01-19T12:45:12;96597.44;;;-0.75;100.00
498;BME280;39559;48.630;9.162;2023-01-19T12:47:39;96599.16;;;-0.78;100.00
498;BME280;39559;48.630;9.162;2023-01-19T12:50:16;96596.72;;;-0.85;100.00
498;BME280;39559;48.630;9.162;2023-01-19T12:52:52;96603.44;;;-0.80;100.00
498;BME280;39559;48.630;9.162;2023-01-19T12:55:29;96609.34;;;-0.74;100.00
498;BME280;39559;48.630;9.162;2023-01-19T12:58:13;96599.94;;;-0.71;100.00
498;BME280;39559;48.630;9.162;2023-01-19T13:00:43;96594.88;;;-0.74;100.00
498;BME280;39559;48.630;9.162;2023-01-19T13:09:30;96594.19;;;-0.87;100.00
498;BME280;39559;48.630;9.162;2023-01-19T13:12:20;96596.84;;;-0.96;100.00
498;BME280;39559;48.630;9.162;2023-01-19T13:14:46;96596.03;;;-1.00;100.00
498;BME280;39559;48.630;9.162;2023-01-19T13:17:25;96602.78;;;-0.97;100.00
498;BME280;39559;48.630;9.162;2023-01-19T13:20:22;96606.13;;;-0.92;100.00
498;BME280;39559;48.630;9.162;2023-01-19T13:25:35;96608.72;;;-0.97;100.00
498;BME280;39559;48.630;9.162;2023-01-19T13:31:15;96600.25;;;-1.00;100.00
498;BME280;39559;48.630;9.162;2023-01-19T13:36:42;96606.34;;;-1.10;100.00
498;BME280;39559;48.630;9.162;2023-01-19T13:41:43;96611.53;;;-1.18;100.00
498;BME280;39559;48.630;9.162;2023-01-19T13:44:23;96606.44;;;-1.18;100.00
498;BME280;39559;48.630;9.162;2023-01-19T13:46:50;96612.34;;;-1.16;100.00
498;BME280;39559;48.630;9.162;2023-01-19T13:49:18;96613.19;;;-1.16;100.00
498;BME280;39559;48.630;9.162;2023-01-19T13:51:45;96609.75;;;-1.13;100.00
498;BME280;39559;48.630;9.162;2023-01-19T13:54:54;96616.56;;;-1.17;100.00
498;BME280;39559;48.630;9.162;2023-01-19T13:57:27;96608.00;;;-1.09;100.00
498;BME280;39559;48.630;9.162;2023-01-19T14:02:37;96620.69;;;-1.03;100.00
498;BME280;39559;48.630;9.162;2023-01-19T14:05:13;96626.69;;;-1.07;100.00
498;BME280;39559;48.630;9.162;2023-01-19T14:07:38;96617.34;;;-1.08;100.00
498;BME280;39559;48.630;9.162;2023-01-19T14:10:05;96614.72;;;-1.02;100.00
498;BME280;39559;48.630;9.162;2023-01-19T14:12:32;96621.53;;;-1.01;100.00
498;BME280;39559;48.630;9.162;2023-01-19T14:14:57;96623.22;;;-1.02;100.00
498;BME280;39559;48.630;9.162;2023-01-19T14:19:00;96625.72;;;-0.97;100.00
498;BME280;39559;48.630;9.162;2023-01-19T14:21:37;96627.56;;;-1.10;100.00
498;BME280;39559;48.630;9.162;2023-01-19T14:24:30;96615.69;;;-1.11;100.00
498;BME280;39559;48.630;9.162;2023-01-19T14:27:15;96620.78;;;-1.11;100.00
498;BME280;39559;48.630;9.162;2023-01-19T14:29:43;96619.97;;;-1.14;100.00
498;BME280;39559;48.630;9.162;2023-01-19T14:32:19;96618.06;;;-0.95;100.00
498;BME280;39559;48.630;9.162;2023-01-19T14:34:51;96618.03;;;-0.94;100.00
498;BME280;39559;48.630;9.162;2023-01-19T14:37:31;96603.56;;;-0.89;100.00
498;BME280;39559;48.630;9.162;2023-01-19T14:43:02;96616.34;;;-0.95;100.00
498;BME280;39559;48.630;9.162;2023-01-19T14:45:33;96623.16;;;-0.97;100.00
498;BME280;39559;48.630;9.162;2023-01-19T14:48:02;96620.63;;;-0.97;100.00
498;BME280;39559;48.630;9.162;2023-01-19T14:50:35;96623.97;;;-0.93;100.00
498;BME280;39559;48.630;9.162;2023-01-19T14:53:04;96618.16;;;-1.03;100.00
498;BME280;39559;48.630;9.162;2023-01-19T14:55:59;96620.59;;;-0.92;100.00
498;BME280;39559;48.630;9.162;2023-01-19T14:58:31;96622.13;;;-0.81;100.00
498;BME280;39559;48.630;9.162;2023-01-19T15:00:57;96621.38;;;-0.89;100.00
498;BME280;39559;48.630;9.162;2023-01-19T15:03:23;96621.38;;;-0.89;100.00
498;BME280;39559;48.630;9.162;2023-01-19T15:07:01;96625.50;;;-0.79;100.00
498;BME280;39559;48.630;9.162;2023-01-19T15:09:27;96621.28;;;-0.78;100.00
498;BME280;39559;48.630;9.162;2023-01-19T15:11:53;96624.88;;;-0.96;100.00
498;BME280;39559;48.630;9.162;2023-01-19T15:14:20;96615.63;;;-1.05;100.00
498;BME280;39559;48.630;9.162;2023-01-19T15:16:46;96623.25;;;-1.03;100.00
498;BME280;39559;48.630;9.162;2023-01-19T15:19:13;96615.63;;;-1.08;100.00
498;BME280;39559;48.630;9.162;2023-01-19T15:21:39;96618.19;;;-1.09;100.00
498;BME280;39559;48.630;9.162;2023-01-19T15:24:11;96616.50;;;-1.07;100.00
498;BME280;39559;48.630;9.162;2023-01-19T15:26:38;96621.50;;;-0.98;100.00
498;BME280;39559;48.630;9.162;2023-01-19T15:31:04;96616.44;;;-1.01;100.00